sensor_id;sensor_type;location;lat;lon;timestamp;P1;durP1;ratioP1;P2;durP2;ratioP2
21860;SDS011;11095;48.066;8.540;2023-10-19T00:01:54;15.15;;;11.48;;
21860;SDS011;11095;48.066;8.540;2023-10-19T00:04:20;13.52;;;11.38;;
21860;SDS011;11095;48.066;8.540;2023-10-19T00:06:47;14.10;;;11.23;;
21860;SDS011;11095;48.066;8.540;2023-10-19T00:09:14;13.50;;;10.75;;
21860;SDS011;11095;48.066;8.540;2023-10-19T00:11:40;12.77;;;11.15;;
21860;SDS011;11095;48.066;8.540;2023-10-19T00:14:06;14.52;;;11.85;;
21860;SDS011;11095;48.066;8.540;2023-10-19T00:16:41;14.88;;;11.60;;
21860;SDS011;11095;48.066;8.540;2023-10-19T00:19:18;15.27;;;10.80;;
21860;SDS011;11095;48.066;8.540;2023-10-19T00:21:45;15.48;;;12.23;;
21860;SDS011;11095;48.066;8.540;2023-10-19T00:24:16;14.07;;;10.75;;
21860;SDS011;11095;48.066;8.540;2023-10-19T00:26:44;15.32;;;11.85;;
21860;SDS011;11095;48.066;8.540;2023-10-19T00:29:10;14.07;;;11.13;;
21860;SDS011;11095;48.066;8.540;2023-10-19T00:31:59;13.48;;;10.93;;
21860;SDS011;11095;48.066;8.540;2023-10-19T00:34:26;13.75;;;11.07;;
21860;SDS011;11095;48.066;8.540;2023-10-19T00:36:54;13.32;;;11.35;;
21860;SDS011;11095;48.066;8.540;2023-10-19T00:39:21;13.90;;;11.65;;
21860;SDS011;11095;48.066;8.540;2023-10-19T00:41:47;13.60;;;11.63;;
21860;SDS011;11095;48.066;8.540;2023-10-19T00:44:13;14.73;;;11.90;;
21860;SDS011;11095;48.066;8.540;2023-10-19T00:47:00;15.23;;;12.40;;
21860;SDS011;11095;48.066;8.540;2023-10-19T00:49:32;14.48;;;11.45;;
21860;SDS011;11095;48.066;8.540;2023-10-19T00:51:59;15.52;;;12.05;;
21860;SDS011;11095;48.066;8.540;2023-10-19T00:54:36;16.05;;;12.35;;
21860;SDS011;11095;48.066;8.540;2023-10-19T00:57:17;14.05;;;11.35;;
21860;SDS011;11095;48.066;8.540;2023-10-19T00:59:57;13.68;;;11.25;;
21860;SDS011;11095;48.066;8.540;2023-10-19T01:02:36;13.63;;;11.73;;
21860;SDS011;11095;48.066;8.540;2023-10-19T01:05:08;15.07;;;11.73;;
21860;SDS011;11095;48.066;8.540;2023-10-19T01:07:38;12.52;;;10.68;;
21860;SDS011;11095;48.066;8.540;2023-10-19T01:10:04;14.30;;;11.38;;
21860;SDS011;11095;48.066;8.540;2023-10-19T01:12:31;12.75;;;10.43;;
21860;SDS011;11095;48.066;8.540;2023-10-19T01:17:30;16.38;;;12.55;;
21860;SDS011;11095;48.066;8.540;2023-10-19T01:19:58;15.70;;;11.70;;
21860;SDS011;11095;48.066;8.540;2023-10-19T01:22:24;16.73;;;12.27;;
21860;SDS011;11095;48.066;8.540;2023-10-19T01:24:51;15.82;;;12.40;;
21860;SDS011;11095;48.066;8.540;2023-10-19T01:27:18;16.30;;;12.20;;
21860;SDS011;11095;48.066;8.540;2023-10-19T01:29:45;16.05;;;12.13;;
21860;SDS011;11095;48.066;8.540;2023-10-19T01:32:11;16.75;;;12.50;;
21860;SDS011;11095;48.066;8.540;2023-10-19T01:34:40;15.98;;;12.20;;
21860;SDS011;11095;48.066;8.540;2023-10-19T01:37:05;14.63;;;12.00;;
21860;SDS011;11095;48.066;8.540;2023-10-19T01:39:31;15.05;;;11.52;;
21860;SDS011;11095;48.066;8.540;2023-10-19T01:42:02;16.17;;;11.93;;
21860;SDS011;11095;48.066;8.540;2023-10-19T01:44:32;16.95;;;12.57;;
21860;SDS011;11095;48.066;8.540;2023-10-19T01:47:01;15.05;;;11.45;;
21860;SDS011;11095;48.066;8.540;2023-10-19T01:49:26;15.70;;;12.45;;
21860;SDS011;11095;48.066;8.540;2023-10-19T01:51:53;16.20;;;12.02;;
21860;SDS011;11095;48.066;8.540;2023-10-19T01:54:19;14.68;;;11.55;;
21860;SDS011;11095;48.066;8.540;2023-10-19T01:56:53;17.17;;;13.02;;
21860;SDS011;11095;48.066;8.540;2023-10-19T01:59:22;17.70;;;13.15;;
21860;SDS011;11095;48.066;8.540;2023-10-19T02:01:48;18.92;;;13.98;;
21860;SDS011;11095;48.066;8.540;2023-10-19T02:04:14;18.73;;;14.25;;
21860;SDS011;11095;48.066;8.540;2023-10-19T02:06:40;18.05;;;14.00;;
21860;SDS011;11095;48.066;8.540;2023-10-19T02:09:07;19.38;;;15.05;;
21860;SDS011;11095;48.066;8.540;2023-10-19T02:11:43;19.70;;;14.68;;
21860;SDS011;11095;48.066;8.540;2023-10-19T02:14:11;17.55;;;13.98;;
21860;SDS011;11095;48.066;8.540;2023-10-19T02:16:40;18.83;;;15.27;;
21860;SDS011;11095;48.066;8.540;2023-10-19T02:19:07;20.23;;;13.90;;
21860;SDS011;11095;48.066;8.540;2023-10-19T02:21:32;19.38;;;14.60;;
21860;SDS011;11095;48.066;8.540;2023-10-19T02:24:03;18.55;;;14.43;;
21860;SDS011;11095;48.066;8.540;2023-10-19T02:26:29;17.98;;;13.88;;
21860;SDS011;11095;48.066;8.540;2023-10-19T02:28:56;18.02;;;13.93;;
21860;SDS011;11095;48.066;8.540;2023-10-19T02:31:23;17.58;;;14.00;;
21860;SDS011;11095;48.066;8.540;2023-10-19T02:33:50;17.25;;;14.35;;
21860;SDS011;11095;48.066;8.540;2023-10-19T02:36:23;19.77;;;14.90;;
21860;SDS011;11095;48.066;8.540;2023-10-19T02:38:48;17.63;;;13.32;;
21860;SDS011;11095;48.066;8.540;2023-10-19T02:41:15;16.17;;;13.05;;
21860;SDS011;11095;48.066;8.540;2023-10-19T02:43:42;15.52;;;12.88;;
21860;SDS011;11095;48.066;8.540;2023-10-19T02:46:26;19.63;;;14.63;;
21860;SDS011;11095;48.066;8.540;2023-10-19T02:48:52;17.73;;;13.63;;
21860;SDS011;11095;48.066;8.540;2023-10-19T02:51:18;19.13;;;14.73;;
21860;SDS011;11095;48.066;8.540;2023-10-19T02:53:44;20.58;;;15.45;;
21860;SDS011;11095;48.066;8.540;2023-10-19T02:56:10;19.60;;;15.32;;
21860;SDS011;11095;48.066;8.540;2023-10-19T02:58:40;21.95;;;16.63;;
21860;SDS011;11095;48.066;8.540;2023-10-19T03:01:17;24.20;;;17.02;;
21860;SDS011;11095;48.066;8.540;2023-10-19T03:03:53;21.95;;;16.55;;
21860;SDS011;11095;48.066;8.540;2023-10-19T03:06:20;19.70;;;16.60;;
21860;SDS011;11095;48.066;8.540;2023-10-19T03:08:47;23.48;;;16.35;;
21860;SDS011;11095;48.066;8.540;2023-10-19T03:11:22;23.42;;;16.65;;
21860;SDS011;11095;48.066;8.540;2023-10-19T03:16:22;23.95;;;16.73;;
21860;SDS011;11095;48.066;8.540;2023-10-19T03:18:48;19.92;;;15.90;;
21860;SDS011;11095;48.066;8.540;2023-10-19T03:21:16;21.80;;;16.55;;
21860;SDS011;11095;48.066;8.540;2023-10-19T03:23:42;21.85;;;16.40;;
21860;SDS011;11095;48.066;8.540;2023-10-19T03:26:08;22.05;;;16.55;;
21860;SDS011;11095;48.066;8.540;2023-10-19T03:28:47;21.42;;;16.60;;
21860;SDS011;11095;48.066;8.540;2023-10-19T03:31:13;22.48;;;17.23;;
21860;SDS011;11095;48.066;8.540;2023-10-19T03:33:43;19.75;;;15.95;;
21860;SDS011;11095;48.066;8.540;2023-10-19T03:36:11;20.25;;;15.98;;
21860;SDS011;11095;48.066;8.540;2023-10-19T03:38:38;20.40;;;15.75;;
21860;SDS011;11095;48.066;8.540;2023-10-19T03:41:05;19.52;;;15.48;;
21860;SDS011;11095;48.066;8.540;2023-10-19T03:43:33;19.95;;;15.32;;
21860;SDS011;11095;48.066;8.540;2023-10-19T03:46:01;21.55;;;16.35;;
21860;SDS011;11095;48.066;8.540;2023-10-19T03:48:30;23.60;;;16.75;;
21860;SDS011;11095;48.066;8.540;2023-10-19T03:51:02;22.58;;;16.50;;
21860;SDS011;11095;48.066;8.540;2023-10-19T03:53:28;22.95;;;17.05;;
21860;SDS011;11095;48.066;8.540;2023-10-19T03:55:55;21.65;;;16.30;;
21860;SDS011;11095;48.066;8.540;2023-10-19T03:58:21;22.05;;;16.50;;
21860;SDS011;11095;48.066;8.540;2023-10-19T04:00:47;21.80;;;16.55;;
21860;SDS011;11095;48.066;8.540;2023-10-19T04:03:16;19.92;;;15.10;;
21860;SDS011;11095;48.066;8.540;2023-10-19T04:05:42;23.30;;;17.58;;
21860;SDS011;11095;48.066;8.540;2023-10-19T04:08:11;20.60;;;15.60;;
21860;SDS011;11095;48.066;8.540;2023-10-19T04:10:40;23.67;;;16.98;;
21860;SDS011;11095;48.066;8.540;2023-10-19T04:13:09;22.73;;;16.83;;
21860;SDS011;11095;48.066;8.540;2023-10-19T04:15:38;24.58;;;17.35;;
21860;SDS011;11095;48.066;8.540;2023-10-19T04:18:04;21.02;;;16.63;;
21860;SDS011;11095;48.066;8.540;2023-10-19T04:20:36;24.40;;;17.58;;
21860;SDS011;11095;48.066;8.540;2023-10-19T04:23:15;22.95;;;17.23;;
21860;SDS011;11095;48.066;8.540;2023-10-19T04:25:41;24.52;;;19.08;;
21860;SDS011;11095;48.066;8.540;2023-10-19T04:28:06;22.85;;;17.85;;
21860;SDS011;11095;48.066;8.540;2023-10-19T04:30:34;26.42;;;18.58;;
21860;SDS011;11095;48.066;8.540;2023-10-19T04:33:02;27.77;;;19.67;;
21860;SDS011;11095;48.066;8.540;2023-10-19T04:35:27;25.77;;;19.23;;
21860;SDS011;11095;48.066;8.540;2023-10-19T04:37:59;24.50;;;18.23;;
21860;SDS011;11095;48.066;8.540;2023-10-19T04:40:26;26.05;;;19.35;;
21860;SDS011;11095;48.066;8.540;2023-10-19T04:42:52;25.80;;;19.48;;
21860;SDS011;11095;48.066;8.540;2023-10-19T04:45:18;26.45;;;19.52;;
21860;SDS011;11095;48.066;8.540;2023-10-19T04:47:44;28.20;;;20.55;;
21860;SDS011;11095;48.066;8.540;2023-10-19T04:50:11;28.80;;;21.40;;
21860;SDS011;11095;48.066;8.540;2023-10-19T04:52:37;29.42;;;21.15;;
21860;SDS011;11095;48.066;8.540;2023-10-19T04:55:04;27.63;;;20.73;;
21860;SDS011;11095;48.066;8.540;2023-10-19T04:57:30;27.40;;;21.42;;
21860;SDS011;11095;48.066;8.540;2023-10-19T04:59:56;28.45;;;20.75;;
21860;SDS011;11095;48.066;8.540;2023-10-19T05:02:22;29.48;;;21.40;;
21860;SDS011;11095;48.066;8.540;2023-10-19T05:04:48;29.20;;;21.52;;
21860;SDS011;11095;48.066;8.540;2023-10-19T05:07:14;29.55;;;21.10;;
21860;SDS011;11095;48.066;8.540;2023-10-19T05:09:41;29.48;;;21.35;;
21860;SDS011;11095;48.066;8.540;2023-10-19T05:12:08;25.83;;;20.40;;
21860;SDS011;11095;48.066;8.540;2023-10-19T05:14:38;27.48;;;20.98;;
21860;SDS011;11095;48.066;8.540;2023-10-19T05:17:07;29.80;;;22.05;;
21860;SDS011;11095;48.066;8.540;2023-10-19T05:19:37;28.50;;;20.83;;
21860;SDS011;11095;48.066;8.540;2023-10-19T05:22:05;29.27;;;20.73;;
21860;SDS011;11095;48.066;8.540;2023-10-19T05:24:32;26.88;;;20.02;;
21860;SDS011;11095;48.066;8.540;2023-10-19T05:26:58;29.45;;;20.92;;
21860;SDS011;11095;48.066;8.540;2023-10-19T05:29:24;29.17;;;21.98;;
21860;SDS011;11095;48.066;8.540;2023-10-19T05:31:50;30.65;;;22.30;;
21860;SDS011;11095;48.066;8.540;2023-10-19T05:34:21;28.85;;;21.95;;
21860;SDS011;11095;48.066;8.540;2023-10-19T05:36:47;29.83;;;22.77;;
21860;SDS011;11095;48.066;8.540;2023-10-19T05:39:16;29.40;;;20.33;;
21860;SDS011;11095;48.066;8.540;2023-10-19T05:41:42;29.15;;;22.05;;
21860;SDS011;11095;48.066;8.540;2023-10-19T05:44:08;33.53;;;24.10;;
21860;SDS011;11095;48.066;8.540;2023-10-19T05:46:34;31.95;;;23.65;;
21860;SDS011;11095;48.066;8.540;2023-10-19T05:49:01;34.45;;;24.02;;
21860;SDS011;11095;48.066;8.540;2023-10-19T05:51:28;35.72;;;25.35;;
21860;SDS011;11095;48.066;8.540;2023-10-19T05:53:55;35.38;;;25.55;;
21860;SDS011;11095;48.066;8.540;2023-10-19T05:56:26;36.17;;;25.27;;
21860;SDS011;11095;48.066;8.540;2023-10-19T05:58:52;33.17;;;24.38;;
21860;SDS011;11095;48.066;8.540;2023-10-19T06:01:18;35.55;;;26.08;;
21860;SDS011;11095;48.066;8.540;2023-10-19T06:03:44;33.65;;;24.17;;
21860;SDS011;11095;48.066;8.540;2023-10-19T06:06:10;31.77;;;23.17;;
21860;SDS011;11095;48.066;8.540;2023-10-19T06:08:36;30.65;;;22.98;;
21860;SDS011;11095;48.066;8.540;2023-10-19T06:11:01;33.05;;;23.67;;
21860;SDS011;11095;48.066;8.540;2023-10-19T06:13:27;35.10;;;24.70;;
21860;SDS011;11095;48.066;8.540;2023-10-19T06:15:54;37.42;;;25.33;;
21860;SDS011;11095;48.066;8.540;2023-10-19T06:18:20;34.22;;;23.88;;
21860;SDS011;11095;48.066;8.540;2023-10-19T06:20:46;36.67;;;25.48;;
21860;SDS011;11095;48.066;8.540;2023-10-19T06:23:13;34.95;;;24.52;;
21860;SDS011;11095;48.066;8.540;2023-10-19T06:25:38;32.00;;;22.95;;
21860;SDS011;11095;48.066;8.540;2023-10-19T06:28:05;34.40;;;23.88;;
21860;SDS011;11095;48.066;8.540;2023-10-19T06:30:32;34.78;;;23.90;;
21860;SDS011;11095;48.066;8.540;2023-10-19T06:32:58;36.38;;;24.33;;
21860;SDS011;11095;48.066;8.540;2023-10-19T06:35:28;34.53;;;23.83;;
21860;SDS011;11095;48.066;8.540;2023-10-19T06:37:56;31.85;;;23.67;;
21860;SDS011;11095;48.066;8.540;2023-10-19T06:40:22;37.75;;;24.52;;
21860;SDS011;11095;48.066;8.540;2023-10-19T06:42:48;35.03;;;23.15;;
21860;SDS011;11095;48.066;8.540;2023-10-19T06:45:15;32.30;;;23.23;;
21860;SDS011;11095;48.066;8.540;2023-10-19T06:47:44;36.15;;;24.95;;
21860;SDS011;11095;48.066;8.540;2023-10-19T06:50:13;29.17;;;20.52;;
21860;SDS011;11095;48.066;8.540;2023-10-19T06:52:40;30.80;;;21.58;;
21860;SDS011;11095;48.066;8.540;2023-10-19T06:55:07;29.25;;;21.35;;
21860;SDS011;11095;48.066;8.540;2023-10-19T06:57:41;28.95;;;20.90;;
21860;SDS011;11095;48.066;8.540;2023-10-19T07:00:18;31.27;;;22.38;;
21860;SDS011;11095;48.066;8.540;2023-10-19T07:02:46;27.80;;;20.48;;
21860;SDS011;11095;48.066;8.540;2023-10-19T07:05:19;30.33;;;22.00;;
21860;SDS011;11095;48.066;8.540;2023-10-19T07:07:49;31.27;;;22.33;;
21860;SDS011;11095;48.066;8.540;2023-10-19T07:10:19;33.40;;;23.08;;
21860;SDS011;11095;48.066;8.540;2023-10-19T07:12:47;32.80;;;23.05;;
21860;SDS011;11095;48.066;8.540;2023-10-19T07:15:15;29.55;;;21.30;;
21860;SDS011;11095;48.066;8.540;2023-10-19T07:17:44;29.48;;;21.75;;
21860;SDS011;11095;48.066;8.540;2023-10-19T07:20:13;29.80;;;21.90;;
21860;SDS011;11095;48.066;8.540;2023-10-19T07:22:56;29.67;;;22.35;;
21860;SDS011;11095;48.066;8.540;2023-10-19T07:25:28;26.45;;;20.98;;
21860;SDS011;11095;48.066;8.540;2023-10-19T07:27:54;28.73;;;21.48;;
21860;SDS011;11095;48.066;8.540;2023-10-19T07:30:20;28.20;;;21.30;;
21860;SDS011;11095;48.066;8.540;2023-10-19T07:32:49;30.08;;;22.00;;
21860;SDS011;11095;48.066;8.540;2023-10-19T07:35:20;28.83;;;21.70;;
21860;SDS011;11095;48.066;8.540;2023-10-19T07:37:47;28.30;;;21.88;;
21860;SDS011;11095;48.066;8.540;2023-10-19T07:40:15;25.08;;;19.13;;
21860;SDS011;11095;48.066;8.540;2023-10-19T07:42:42;24.83;;;19.58;;
21860;SDS011;11095;48.066;8.540;2023-10-19T07:45:08;24.92;;;19.33;;
21860;SDS011;11095;48.066;8.540;2023-10-19T07:47:40;22.10;;;17.73;;
21860;SDS011;11095;48.066;8.540;2023-10-19T07:50:07;21.73;;;17.33;;
21860;SDS011;11095;48.066;8.540;2023-10-19T07:52:37;19.42;;;16.58;;
21860;SDS011;11095;48.066;8.540;2023-10-19T07:55:04;21.05;;;16.95;;
21860;SDS011;11095;48.066;8.540;2023-10-19T07:57:32;21.95;;;17.52;;
21860;SDS011;11095;48.066;8.540;2023-10-19T07:59:58;20.80;;;16.75;;
21860;SDS011;11095;48.066;8.540;2023-10-19T08:02:24;20.65;;;16.35;;
21860;SDS011;11095;48.066;8.540;2023-10-19T08:04:50;17.65;;;15.48;;
21860;SDS011;11095;48.066;8.540;2023-10-19T08:07:16;21.67;;;16.10;;
21860;SDS011;11095;48.066;8.540;2023-10-19T08:09:42;18.15;;;15.38;;
21860;SDS011;11095;48.066;8.540;2023-10-19T08:12:08;18.08;;;14.50;;
21860;SDS011;11095;48.066;8.540;2023-10-19T08:14:34;18.40;;;15.25;;
21860;SDS011;11095;48.066;8.540;2023-10-19T08:17:00;17.60;;;15.27;;
21860;SDS011;11095;48.066;8.540;2023-10-19T08:19:29;18.42;;;15.13;;
21860;SDS011;11095;48.066;8.540;2023-10-19T08:21:57;17.75;;;13.77;;
21860;SDS011;11095;48.066;8.540;2023-10-19T08:24:23;17.52;;;14.75;;
21860;SDS011;11095;48.066;8.540;2023-10-19T08:26:49;15.80;;;13.27;;
21860;SDS011;11095;48.066;8.540;2023-10-19T08:29:16;18.23;;;13.52;;
21860;SDS011;11095;48.066;8.540;2023-10-19T08:31:42;15.52;;;12.90;;
21860;SDS011;11095;48.066;8.540;2023-10-19T08:34:10;15.95;;;13.50;;
21860;SDS011;11095;48.066;8.540;2023-10-19T08:36:36;16.23;;;13.23;;
21860;SDS011;11095;48.066;8.540;2023-10-19T08:39:06;14.88;;;13.00;;
21860;SDS011;11095;48.066;8.540;2023-10-19T08:41:33;14.25;;;11.50;;
21860;SDS011;11095;48.066;8.540;2023-10-19T08:44:04;15.80;;;13.10;;
21860;SDS011;11095;48.066;8.540;2023-10-19T08:46:36;14.25;;;11.68;;
21860;SDS011;11095;48.066;8.540;2023-10-19T08:49:08;15.38;;;11.80;;
21860;SDS011;11095;48.066;8.540;2023-10-19T08:51:36;18.48;;;15.13;;
21860;SDS011;11095;48.066;8.540;2023-10-19T08:54:03;15.40;;;12.93;;
21860;SDS011;11095;48.066;8.540;2023-10-19T08:56:30;17.05;;;14.30;;
21860;SDS011;11095;48.066;8.540;2023-10-19T08:58:58;15.48;;;13.32;;
21860;SDS011;11095;48.066;8.540;2023-10-19T09:01:26;14.60;;;12.27;;
21860;SDS011;11095;48.066;8.540;2023-10-19T09:03:53;15.27;;;12.10;;
21860;SDS011;11095;48.066;8.540;2023-10-19T09:06:21;13.02;;;11.02;;
21860;SDS011;11095;48.066;8.540;2023-10-19T09:08:47;13.90;;;11.40;;
21860;SDS011;11095;48.066;8.540;2023-10-19T09:11:14;12.48;;;10.32;;
21860;SDS011;11095;48.066;8.540;2023-10-19T09:13:44;12.75;;;10.20;;
21860;SDS011;11095;48.066;8.540;2023-10-19T09:16:14;12.05;;;10.15;;
21860;SDS011;11095;48.066;8.540;2023-10-19T09:18:41;13.35;;;11.13;;
21860;SDS011;11095;48.066;8.540;2023-10-19T09:21:07;13.27;;;10.35;;
21860;SDS011;11095;48.066;8.540;2023-10-19T09:23:36;12.65;;;9.85;;
21860;SDS011;11095;48.066;8.540;2023-10-19T09:26:03;11.77;;;9.90;;
21860;SDS011;11095;48.066;8.540;2023-10-19T09:28:30;13.43;;;10.90;;
21860;SDS011;11095;48.066;8.540;2023-10-19T09:30:58;13.63;;;11.25;;
21860;SDS011;11095;48.066;8.540;2023-10-19T09:33:25;14.55;;;11.25;;
21860;SDS011;11095;48.066;8.540;2023-10-19T09:35:52;13.82;;;11.35;;
21860;SDS011;11095;48.066;8.540;2023-10-19T09:38:19;11.68;;;10.15;;
21860;SDS011;11095;48.066;8.540;2023-10-19T09:40:51;12.98;;;11.02;;
21860;SDS011;11095;48.066;8.540;2023-10-19T09:43:24;12.25;;;10.57;;
21860;SDS011;11095;48.066;8.540;2023-10-19T09:46:09;12.57;;;10.50;;
21860;SDS011;11095;48.066;8.540;2023-10-19T09:48:39;13.73;;;10.30;;
21860;SDS011;11095;48.066;8.540;2023-10-19T09:51:11;11.00;;;9.23;;
21860;SDS011;11095;48.066;8.540;2023-10-19T09:53:38;11.55;;;9.52;;
21860;SDS011;11095;48.066;8.540;2023-10-19T09:56:13;11.77;;;10.35;;
21860;SDS011;11095;48.066;8.540;2023-10-19T09:58:45;14.90;;;11.30;;
21860;SDS011;11095;48.066;8.540;2023-10-19T10:01:18;13.60;;;11.15;;
21860;SDS011;11095;48.066;8.540;2023-10-19T10:03:47;13.18;;;10.45;;
21860;SDS011;11095;48.066;8.540;2023-10-19T10:06:15;11.40;;;9.52;;
21860;SDS011;11095;48.066;8.540;2023-10-19T10:08:45;12.68;;;10.20;;
21860;SDS011;11095;48.066;8.540;2023-10-19T10:13:44;10.77;;;9.38;;
21860;SDS011;11095;48.066;8.540;2023-10-19T10:16:12;10.25;;;8.52;;
21860;SDS011;11095;48.066;8.540;2023-10-19T10:18:41;10.98;;;8.60;;
21860;SDS011;11095;48.066;8.540;2023-10-19T10:23:53;9.90;;;8.20;;
21860;SDS011;11095;48.066;8.540;2023-10-19T10:26:25;13.65;;;10.65;;
21860;SDS011;11095;48.066;8.540;2023-10-19T10:31:47;11.95;;;9.10;;
21860;SDS011;11095;48.066;8.540;2023-10-19T10:37:02;12.05;;;9.90;;
21860;SDS011;11095;48.066;8.540;2023-10-19T10:39:34;11.40;;;8.70;;
21860;SDS011;11095;48.066;8.540;2023-10-19T10:42:02;9.35;;;8.10;;
21860;SDS011;11095;48.066;8.540;2023-10-19T10:44:38;8.65;;;7.35;;
21860;SDS011;11095;48.066;8.540;2023-10-19T10:47:18;10.32;;;7.50;;
21860;SDS011;11095;48.066;8.540;2023-10-19T10:49:52;9.73;;;7.50;;
21860;SDS011;11095;48.066;8.540;2023-10-19T10:55:08;8.07;;;6.72;;
21860;SDS011;11095;48.066;8.540;2023-10-19T10:57:42;8.43;;;6.00;;
21860;SDS011;11095;48.066;8.540;2023-10-19T11:00:15;7.90;;;6.40;;
21860;SDS011;11095;48.066;8.540;2023-10-19T11:02:41;9.63;;;8.25;;
21860;SDS011;11095;48.066;8.540;2023-10-19T11:05:08;11.55;;;9.40;;
21860;SDS011;11095;48.066;8.540;2023-10-19T11:07:37;10.75;;;8.63;;
21860;SDS011;11095;48.066;8.540;2023-10-19T11:10:04;10.00;;;8.77;;
21860;SDS011;11095;48.066;8.540;2023-10-19T11:12:31;11.57;;;7.65;;
21860;SDS011;11095;48.066;8.540;2023-10-19T11:14:58;8.93;;;7.45;;
21860;SDS011;11095;48.066;8.540;2023-10-19T11:17:24;8.23;;;6.28;;
21860;SDS011;11095;48.066;8.540;2023-10-19T11:19:55;6.93;;;6.20;;
21860;SDS011;11095;48.066;8.540;2023-10-19T11:22:22;6.90;;;5.97;;
21860;SDS011;11095;48.066;8.540;2023-10-19T11:24:51;6.88;;;5.63;;
21860;SDS011;11095;48.066;8.540;2023-10-19T11:29:57;7.20;;;5.10;;
21860;SDS011;11095;48.066;8.540;2023-10-19T11:32:24;6.93;;;5.80;;
21860;SDS011;11095;48.066;8.540;2023-10-19T11:34:59;8.77;;;6.32;;
21860;SDS011;11095;48.066;8.540;2023-10-19T11:37:26;7.60;;;5.60;;
21860;SDS011;11095;48.066;8.540;2023-10-19T11:39:51;6.22;;;5.40;;
21860;SDS011;11095;48.066;8.540;2023-10-19T11:42:17;6.70;;;5.43;;
21860;SDS011;11095;48.066;8.540;2023-10-19T11:44:43;6.97;;;5.05;;
21860;SDS011;11095;48.066;8.540;2023-10-19T11:47:10;6.13;;;5.07;;
21860;SDS011;11095;48.066;8.540;2023-10-19T11:49:35;5.60;;;5.00;;
21860;SDS011;11095;48.066;8.540;2023-10-19T11:52:04;5.68;;;4.85;;
21860;SDS011;11095;48.066;8.540;2023-10-19T11:54:32;5.57;;;4.53;;
21860;SDS011;11095;48.066;8.540;2023-10-19T11:56:58;5.50;;;4.88;;
21860;SDS011;11095;48.066;8.540;2023-10-19T11:59:24;6.43;;;5.10;;
21860;SDS011;11095;48.066;8.540;2023-10-19T12:01:51;5.30;;;4.43;;
21860;SDS011;11095;48.066;8.540;2023-10-19T12:04:17;4.35;;;3.95;;
21860;SDS011;11095;48.066;8.540;2023-10-19T12:06:43;6.03;;;4.47;;
21860;SDS011;11095;48.066;8.540;2023-10-19T12:09:11;6.93;;;5.28;;
21860;SDS011;11095;48.066;8.540;2023-10-19T12:11:42;7.03;;;5.28;;
21860;SDS011;11095;48.066;8.540;2023-10-19T12:14:09;13.82;;;6.35;;
21860;SDS011;11095;48.066;8.540;2023-10-19T12:16:39;7.40;;;5.30;;
21860;SDS011;11095;48.066;8.540;2023-10-19T12:19:05;7.47;;;5.95;;
21860;SDS011;11095;48.066;8.540;2023-10-19T12:21:32;6.47;;;5.75;;
21860;SDS011;11095;48.066;8.540;2023-10-19T12:23:58;5.75;;;4.72;;
21860;SDS011;11095;48.066;8.540;2023-10-19T12:26:26;7.28;;;4.80;;
21860;SDS011;11095;48.066;8.540;2023-10-19T12:28:52;5.15;;;4.65;;
21860;SDS011;11095;48.066;8.540;2023-10-19T12:31:17;7.25;;;6.30;;
21860;SDS011;11095;48.066;8.540;2023-10-19T12:33:43;5.88;;;5.28;;
21860;SDS011;11095;48.066;8.540;2023-10-19T12:36:10;7.20;;;5.55;;
21860;SDS011;11095;48.066;8.540;2023-10-19T12:38:51;8.10;;;5.75;;
21860;SDS011;11095;48.066;8.540;2023-10-19T12:41:18;6.43;;;5.55;;
21860;SDS011;11095;48.066;8.540;2023-10-19T12:43:44;5.88;;;5.20;;
21860;SDS011;11095;48.066;8.540;2023-10-19T12:46:11;6.97;;;5.57;;
21860;SDS011;11095;48.066;8.540;2023-10-19T12:48:38;8.15;;;7.28;;
21860;SDS011;11095;48.066;8.540;2023-10-19T12:51:04;6.32;;;5.72;;
21860;SDS011;11095;48.066;8.540;2023-10-19T12:53:34;6.38;;;5.47;;
21860;SDS011;11095;48.066;8.540;2023-10-19T12:56:00;5.47;;;4.68;;
21860;SDS011;11095;48.066;8.540;2023-10-19T12:58:25;5.28;;;4.78;;
21860;SDS011;11095;48.066;8.540;2023-10-19T13:00:52;5.75;;;4.75;;
21860;SDS011;11095;48.066;8.540;2023-10-19T13:03:20;5.35;;;4.85;;
21860;SDS011;11095;48.066;8.540;2023-10-19T13:05:47;7.63;;;6.72;;
21860;SDS011;11095;48.066;8.540;2023-10-19T13:08:14;7.35;;;6.22;;
21860;SDS011;11095;48.066;8.540;2023-10-19T13:10:44;6.82;;;6.13;;
21860;SDS011;11095;48.066;8.540;2023-10-19T13:13:12;7.18;;;5.95;;
21860;SDS011;11095;48.066;8.540;2023-10-19T13:15:40;6.75;;;5.60;;
21860;SDS011;11095;48.066;8.540;2023-10-19T13:18:10;8.20;;;7.38;;
21860;SDS011;11095;48.066;8.540;2023-10-19T13:20:37;9.13;;;7.28;;
21860;SDS011;11095;48.066;8.540;2023-10-19T13:23:06;7.38;;;6.10;;
21860;SDS011;11095;48.066;8.540;2023-10-19T13:25:36;7.28;;;6.47;;
21860;SDS011;11095;48.066;8.540;2023-10-19T13:28:12;7.68;;;5.97;;
21860;SDS011;11095;48.066;8.540;2023-10-19T13:30:38;6.40;;;5.30;;
21860;SDS011;11095;48.066;8.540;2023-10-19T13:33:05;5.90;;;4.88;;
21860;SDS011;11095;48.066;8.540;2023-10-19T13:35:34;5.40;;;3.72;;
21860;SDS011;11095;48.066;8.540;2023-10-19T13:38:00;4.25;;;3.53;;
21860;SDS011;11095;48.066;8.540;2023-10-19T13:40:27;3.45;;;2.97;;
21860;SDS011;11095;48.066;8.540;2023-10-19T13:42:55;5.20;;;2.92;;
21860;SDS011;11095;48.066;8.540;2023-10-19T13:45:21;3.20;;;2.65;;
21860;SDS011;11095;48.066;8.540;2023-10-19T13:47:47;5.88;;;5.10;;
21860;SDS011;11095;48.066;8.540;2023-10-19T13:50:12;4.80;;;4.03;;
21860;SDS011;11095;48.066;8.540;2023-10-19T13:52:38;3.85;;;2.60;;
21860;SDS011;11095;48.066;8.540;2023-10-19T13:55:05;2.30;;;1.85;;
21860;SDS011;11095;48.066;8.540;2023-10-19T13:57:32;1.98;;;1.77;;
21860;SDS011;11095;48.066;8.540;2023-10-19T13:59:59;2.40;;;2.13;;
21860;SDS011;11095;48.066;8.540;2023-10-19T14:02:26;2.88;;;2.38;;
21860;SDS011;11095;48.066;8.540;2023-10-19T14:04:51;3.03;;;2.63;;
21860;SDS011;11095;48.066;8.540;2023-10-19T14:07:18;3.15;;;2.85;;
21860;SDS011;11095;48.066;8.540;2023-10-19T14:09:45;4.38;;;2.47;;
21860;SDS011;11095;48.066;8.540;2023-10-19T14:12:10;3.53;;;2.42;;
21860;SDS011;11095;48.066;8.540;2023-10-19T14:14:36;4.32;;;3.30;;
21860;SDS011;11095;48.066;8.540;2023-10-19T14:17:01;3.30;;;2.80;;
21860;SDS011;11095;48.066;8.540;2023-10-19T14:19:27;3.60;;;2.80;;
21860;SDS011;11095;48.066;8.540;2023-10-19T14:21:53;2.90;;;2.50;;
21860;SDS011;11095;48.066;8.540;2023-10-19T14:24:19;2.80;;;2.30;;
21860;SDS011;11095;48.066;8.540;2023-10-19T14:26:45;2.60;;;2.40;;
21860;SDS011;11095;48.066;8.540;2023-10-19T14:29:12;3.53;;;2.53;;
21860;SDS011;11095;48.066;8.540;2023-10-19T14:31:38;3.78;;;3.15;;
21860;SDS011;11095;48.066;8.540;2023-10-19T14:34:05;3.88;;;2.88;;
21860;SDS011;11095;48.066;8.540;2023-10-19T14:36:33;4.65;;;3.03;;
21860;SDS011;11095;48.066;8.540;2023-10-19T14:38:58;5.38;;;3.40;;
21860;SDS011;11095;48.066;8.540;2023-10-19T14:41:24;5.03;;;2.78;;
21860;SDS011;11095;48.066;8.540;2023-10-19T14:43:49;4.00;;;2.53;;
21860;SDS011;11095;48.066;8.540;2023-10-19T14:46:15;4.15;;;2.50;;
21860;SDS011;11095;48.066;8.540;2023-10-19T14:48:41;3.80;;;2.55;;
21860;SDS011;11095;48.066;8.540;2023-10-19T14:51:06;5.68;;;3.30;;
21860;SDS011;11095;48.066;8.540;2023-10-19T14:53:32;4.40;;;3.17;;
21860;SDS011;11095;48.066;8.540;2023-10-19T14:55:58;4.82;;;3.60;;